createdAt,value
2024-03-07T00:02:54.170Z,60.00
2024-03-07T00:08:01.043Z,47.50
2024-03-07T00:13:08.922Z,35.80
2024-03-07T00:18:16.591Z,35.00
2024-03-07T00:23:23.604Z,28.50
2024-03-07T00:28:33.762Z,31.40
2024-03-07T00:33:53.417Z,31.80
2024-03-07T00:39:09.547Z,32.40
2024-03-07T00:44:16.434Z,38.90
2024-03-07T00:49:23.221Z,32.70
2024-03-07T00:54:30.108Z,37.30
2024-03-07T00:59:37.053Z,33.20
2024-03-07T01:04:43.979Z,35.70
2024-03-07T01:09:50.921Z,35.60
2024-03-07T01:14:58.645Z,36.30
2024-03-07T01:20:06.184Z,32.80
2024-03-07T01:25:15.235Z,33.80
2024-03-07T01:30:24.525Z,32.70
2024-03-07T01:35:31.082Z,37.10
2024-03-07T01:40:37.591Z,38.50
2024-03-07T01:45:44.732Z,40.60
2024-03-07T01:50:51.291Z,35.60
2024-03-07T01:55:58.828Z,34.20
2024-03-07T02:01:06.201Z,36.90
2024-03-07T02:06:13.766Z,37.20
2024-03-07T02:11:20.748Z,37.50
2024-03-07T02:16:28.243Z,35.20
2024-03-07T02:21:35.753Z,33.40
2024-03-07T02:26:42.633Z,37.20
2024-03-07T02:31:49.320Z,42.70
2024-03-07T02:36:56.139Z,37.60
2024-03-07T02:42:03.731Z,41.70
2024-03-07T02:47:10.461Z,38.90
2024-03-07T02:52:17.299Z,42.60
2024-03-07T02:57:23.830Z,43.70
2024-03-07T03:02:30.661Z,41.10
2024-03-07T03:07:38.192Z,44.50
2024-03-07T03:12:45.477Z,42.30
2024-03-07T03:17:53.230Z,41.30
2024-03-07T03:23:11.366Z,46.80
2024-03-07T03:28:26.203Z,45.20
2024-03-07T03:33:33.650Z,46.80
2024-03-07T03:38:40.441Z,43.20
2024-03-07T03:43:48.746Z,37.40
2024-03-07T03:48:55.257Z,40.90
2024-03-07T03:54:02.279Z,36.90
2024-03-07T03:59:09.395Z,36.20
2024-03-07T04:04:15.965Z,40.50
2024-03-07T04:09:22.461Z,38.90
2024-03-07T04:14:33.917Z,35.70
2024-03-07T04:26:46.009Z,37.30
2024-03-07T04:31:53.084Z,39.40
2024-03-07T04:37:00.199Z,37.50
2024-03-07T04:42:08.248Z,41.40
2024-03-07T04:47:15.081Z,37.20
2024-03-07T04:52:21.873Z,37.40
2024-03-07T04:57:28.420Z,39.50
2024-03-07T05:02:35.334Z,39.10
2024-03-07T05:07:43.095Z,33.00
2024-03-07T05:12:50.055Z,36.20
2024-03-07T05:17:57.545Z,43.20
2024-03-07T05:23:06.421Z,42.20
2024-03-07T05:28:13.133Z,39.30
2024-03-07T05:33:22.314Z,41.40
2024-03-07T05:38:29.926Z,37.80
2024-03-07T05:43:37.064Z,41.50
2024-03-07T05:48:43.952Z,39.10
2024-03-07T05:53:51.352Z,45.50
2024-03-07T05:58:57.932Z,41.70
2024-03-07T06:04:09.458Z,44.60
2024-03-07T06:09:22.485Z,43.20
2024-03-07T06:14:29.607Z,44.80
2024-03-07T06:19:36.700Z,39.40
2024-03-07T06:24:43.739Z,35.60
2024-03-07T06:29:51.983Z,34.80
2024-03-07T06:34:58.768Z,25.20
2024-03-07T06:40:10.761Z,30.30
2024-03-07T06:45:17.479Z,25.90
2024-03-07T06:50:32.556Z,27.00
2024-03-07T06:55:43.846Z,19.90
2024-03-07T07:00:53.230Z,32.00
2024-03-07T07:06:00.146Z,17.50
2024-03-07T07:11:07.655Z,25.00
2024-03-07T07:16:14.304Z,19.50
2024-03-07T07:21:21.133Z,18.20
2024-03-07T07:26:27.864Z,12.80
2024-03-07T07:31:35.236Z,14.10
2024-03-07T07:36:41.896Z,12.70
2024-03-07T07:41:48.787Z,12.50
2024-03-07T07:46:55.667Z,12.20
2024-03-07T07:52:02.382Z,9.40
2024-03-07T07:57:09.282Z,7.00
2024-03-07T08:02:15.879Z,8.60
2024-03-07T08:07:22.626Z,13.30
2024-03-07T08:12:29.411Z,6.60
2024-03-07T08:17:36.586Z,6.20
2024-03-07T08:22:44.323Z,7.60
2024-03-07T08:27:51.855Z,8.80
2024-03-07T08:32:58.939Z,7.90
2024-03-07T08:38:06.298Z,7.30
2024-03-07T08:43:13.340Z,7.10
2024-03-07T08:48:20.950Z,11.80
2024-03-07T08:53:27.773Z,10.80
2024-03-07T08:58:34.936Z,7.20
2024-03-07T09:03:41.601Z,8.40
2024-03-07T09:08:48.538Z,11.10
2024-03-07T09:13:55.182Z,10.70
2024-03-07T09:19:01.759Z,34.10
2024-03-07T09:24:08.580Z,6.20
2024-03-07T09:29:15.251Z,5.90
2024-03-07T09:34:22.435Z,7.10
2024-03-07T09:39:29.446Z,5.60
2024-03-07T09:44:36.791Z,9.70
2024-03-07T09:49:43.446Z,8.90
2024-03-07T09:54:50.037Z,10.60
2024-03-07T09:59:57.160Z,6.70
2024-03-07T10:05:07.058Z,8.30
2024-03-07T10:10:13.696Z,11.30
2024-03-07T10:15:20.666Z,8.80
2024-03-07T10:20:29.912Z,9.20
2024-03-07T10:25:37.067Z,8.50
2024-03-07T10:30:51.512Z,10.90
2024-03-07T10:35:58.604Z,6.20
2024-03-07T10:41:05.778Z,11.90
2024-03-07T10:46:13.772Z,9.50
2024-03-07T10:51:26.307Z,7.90
2024-03-07T10:56:42.693Z,9.10
2024-03-07T11:01:58.453Z,13.10
2024-03-07T11:07:05.219Z,7.10
2024-03-07T11:12:13.690Z,10.70
2024-03-07T11:17:21.030Z,14.40
2024-03-07T11:22:35.392Z,7.90
2024-03-07T11:27:43.687Z,8.30
2024-03-07T11:32:54.498Z,13.70
2024-03-07T11:38:04.450Z,9.20
2024-03-07T11:43:13.982Z,12.40
2024-03-07T11:48:21.646Z,9.90
2024-03-07T11:53:29.305Z,10.30
2024-03-07T11:58:38.758Z,13.30
2024-03-07T12:03:45.747Z,8.80
2024-03-07T12:08:52.475Z,17.30
2024-03-07T12:14:00.476Z,8.90
2024-03-07T12:19:07.066Z,11.30
2024-03-07T12:24:17.554Z,12.50
2024-03-07T12:29:28.392Z,12.30
2024-03-07T12:34:38.373Z,10.10
2024-03-07T12:39:47.964Z,11.20
2024-03-07T12:44:54.987Z,14.10
2024-03-07T12:50:01.997Z,9.90
2024-03-07T12:55:09.547Z,15.20
2024-03-07T13:00:20.791Z,8.70
2024-03-07T13:05:27.891Z,12.50
2024-03-07T13:10:35.853Z,10.90
2024-03-07T13:15:43.654Z,11.40
2024-03-07T13:20:51.248Z,10.50
2024-03-07T13:25:57.861Z,9.60
2024-03-07T13:31:04.862Z,10.40
2024-03-07T13:36:12.340Z,11.30
2024-03-07T13:41:19.137Z,11.10
2024-03-07T13:46:25.801Z,8.90
2024-03-07T13:51:32.782Z,11.40
2024-03-07T13:57:00.276Z,11.40
2024-03-07T14:02:24.688Z,11.60
2024-03-07T14:07:46.366Z,11.90
2024-03-07T14:13:07.617Z,12.20
2024-03-07T14:18:51.219Z,11.40
2024-03-07T14:24:21.430Z,12.90
2024-03-07T14:29:32.907Z,12.40
2024-03-07T14:34:51.691Z,15.40
2024-03-07T14:40:14.532Z,13.70
2024-03-07T14:45:24.877Z,11.90
2024-03-07T14:50:35.741Z,13.00
2024-03-07T14:55:44.606Z,13.70
2024-03-07T15:00:57.897Z,14.60
2024-03-07T15:06:09.569Z,14.60
2024-03-07T15:11:22.026Z,15.40
2024-03-07T15:16:33.833Z,13.10
2024-03-07T15:21:43.581Z,13.40
2024-03-07T15:26:51.264Z,12.90
2024-03-07T15:31:57.884Z,13.30
2024-03-07T15:37:04.855Z,14.50
2024-03-07T15:42:12.719Z,16.40
2024-03-07T15:47:22.931Z,14.90
2024-03-07T15:52:29.491Z,15.30
2024-03-07T15:57:36.270Z,15.70
2024-03-07T16:02:43.851Z,23.30
2024-03-07T16:07:50.877Z,18.00
2024-03-07T16:12:58.388Z,17.90
2024-03-07T16:18:07.083Z,24.70
2024-03-07T16:23:17.099Z,30.60
2024-03-07T16:28:28.660Z,41.30
2024-03-07T16:33:35.506Z,108.80
2024-03-07T16:38:42.285Z,93.40
2024-03-07T16:43:49.259Z,63.30
2024-03-07T16:48:56.489Z,66.80
2024-03-07T16:54:03.258Z,70.90
2024-03-07T16:59:11.326Z,71.70
2024-03-07T17:04:18.020Z,72.30
2024-03-07T17:09:25.568Z,68.00
2024-03-07T17:14:32.479Z,62.70
2024-03-07T17:19:39.392Z,71.90
2024-03-07T17:24:47.552Z,71.90
2024-03-07T17:29:54.125Z,69.30
2024-03-07T17:35:01.288Z,115.00
2024-03-07T17:40:19.328Z,140.60
2024-03-07T17:45:35.837Z,143.80
2024-03-07T17:50:45.072Z,116.90
2024-03-07T17:55:52.503Z,135.00
2024-03-07T18:00:59.265Z,156.20
2024-03-07T18:06:06.580Z,190.30
2024-03-07T18:11:14.893Z,204.10
2024-03-07T18:16:23.257Z,215.30
2024-03-07T18:21:30.304Z,196.50
2024-03-07T18:26:37.385Z,167.60
2024-03-07T18:31:44.095Z,175.40
2024-03-07T18:36:50.981Z,168.30
2024-03-07T18:41:58.863Z,161.20
2024-03-07T18:47:07.080Z,152.30
2024-03-07T18:52:13.718Z,141.20
2024-03-07T19:10:18.321Z,167.30
2024-03-07T19:15:25.216Z,175.70
2024-03-07T19:20:33.143Z,209.90
2024-03-07T19:25:40.188Z,238.50
2024-03-07T19:30:48.423Z,240.50
2024-03-07T19:36:00.427Z,233.40
2024-03-07T19:41:10.833Z,244.70
2024-03-07T19:46:17.696Z,211.60
2024-03-07T19:51:26.295Z,221.50
2024-03-07T19:56:34.807Z,231.20
2024-03-07T20:01:41.800Z,225.70
2024-03-07T20:06:48.484Z,218.20
2024-03-07T20:11:55.445Z,201.10
2024-03-07T20:17:02.385Z,202.20
2024-03-07T20:22:09.008Z,177.60
2024-03-07T20:27:17.220Z,182.00
2024-03-07T20:32:25.225Z,193.10
2024-03-07T20:37:32.386Z,184.50
2024-03-07T20:42:39.892Z,189.80
2024-03-07T20:47:49.156Z,195.30
2024-03-07T20:52:56.098Z,205.30
2024-03-07T20:58:03.022Z,204.20
2024-03-07T21:03:12.252Z,212.60
2024-03-07T21:08:21.379Z,192.00
2024-03-07T21:13:29.144Z,206.60
2024-03-07T21:18:36.101Z,200.30
2024-03-07T21:23:44.396Z,195.60
2024-03-07T21:28:55.124Z,209.70
2024-03-07T21:34:03.837Z,202.70
2024-03-07T21:39:10.636Z,209.20
2024-03-07T21:44:17.749Z,204.60
2024-03-07T21:49:24.875Z,226.30
2024-03-07T21:54:34.382Z,220.70
2024-03-07T21:59:42.836Z,232.90
2024-03-07T22:04:52.990Z,254.10
2024-03-07T22:10:00.523Z,252.40
2024-03-07T22:15:11.087Z,261.30
2024-03-07T22:25:26.497Z,275.10
2024-03-07T22:30:34.293Z,253.00
2024-03-07T22:35:42.072Z,244.30
2024-03-07T22:40:49.384Z,271.30
2024-03-07T22:45:55.851Z,247.10
2024-03-07T22:51:02.489Z,261.70
2024-03-07T22:56:12.900Z,267.00
2024-03-07T23:01:19.700Z,252.00
2024-03-07T23:06:27.530Z,257.00
2024-03-07T23:11:35.910Z,267.90
2024-03-07T23:16:46.225Z,290.20
2024-03-07T23:21:52.800Z,273.80
2024-03-07T23:26:59.483Z,269.10
2024-03-07T23:32:07.237Z,299.40
2024-03-07T23:37:15.456Z,295.90
2024-03-07T23:42:22.223Z,278.90
2024-03-07T23:47:29.083Z,279.30
2024-03-07T23:52:36.562Z,257.00
2024-03-07T23:57:43.885Z,261.00
